Time,TemperatureF,DewpointF,PressureIn,WindDirection,WindDirectionDegrees,WindSpeedMPH,WindSpeedGustMPH,Humidity,HourlyPrecipIn,Conditions,Clouds,dailyrainin,SolarRadiationWatts/m^2,SoftwareType,DateUTC
2013-04-29 00:01:00,60.2,34.5,30.09,ENE,65,0.0,0.0,38,0.00,,,0.00,0,Wunderground v.1.15,2013-04-29 04:01:00,
2013-04-29 00:02:00,60.1,34.4,30.09,ENE,65,0.0,0.0,38,0.00,,,0.00,0,Wunderground v.1.15,2013-04-29 04:02:00,
2013-04-29 00:03:00,60.1,34.4,30.09,ENE,65,0.0,0.0,38,0.00,,,0.00,0,Wunderground v.1.15,2013-04-29 04:03:00,
2013-04-29 00:06:00,59.9,34.9,30.09,ENE,65,0.0,0.0,39,0.00,,,0.00,0,Wunderground v.1.15,2013-04-29 04:06:00,
2013-04-29 00:11:00,60.1,34.4,30.09,North,353,0.0,2.0,38,0.00,,,0.00,0,Wunderground v.1.15,2013-04-29 04:11:00,
2013-04-29 00:17:00,60.1,35.0,30.09,North,355,1.0,2.0,39,0.00,,,0.00,0,Wunderground v.1.15,2013-04-29 04:17:00,
2013-04-29 00:22:00,60.1,34.4,30.09,NNE,16,0.0,1.0,38,0.00,,,0.00,0,Wunderground v.1.15,2013-04-29 04:22:00,
2013-04-29 00:28:00,59.9,34.9,30.09,ENE,76,0.0,2.0,39,0.00,,,0.00,0,Wunderground v.1.15,2013-04-29 04:28:00,
2013-04-29 00:34:00,59.8,35.4,30.09,ENE,76,0.0,0.0,40,0.00,,,0.00,0,Wunderground v.1.15,2013-04-29 04:34:00,
2013-04-29 00:39:00,59.5,35.1,30.09,East,90,0.0,1.0,40,0.00,,,0.00,0,Wunderground v.1.15,2013-04-29 04:39:00,
2013-04-29 00:45:00,59.3,35.0,30.09,South,171,0.0,0.0,40,0.00,,,0.00,0,Wunderground v.1.15,2013-04-29 04:45:00,
2013-04-29 00:51:00,59.0,35.3,30.09,South,170,0.0,0.0,41,0.00,,,0.00,0,Wunderground v.1.15,2013-04-29 04:51:00,
2013-04-29 00:57:00,58.9,35.2,30.09,South,170,0.0,0.0,41,0.00,,,0.00,0,Wunderground v.1.15,2013-04-29 04:57:00,
2013-04-29 01:02:00,58.7,35.0,30.09,South,170,0.0,0.0,41,0.00,,,0.00,0,Wunderground v.1.15,2013-04-29 05:02:00,
2013-04-29 01:08:00,58.4,35.4,30.09,South,170,0.0,0.0,42,0.00,,,0.00,0,Wunderground v.1.15,2013-04-29 05:08:00,
2013-04-29 01:13:00,58.3,35.3,30.09,South,170,0.0,0.0,42,0.00,,,0.00,0,Wunderground v.1.15,2013-04-29 05:13:00,
2013-04-29 01:18:00,58.0,36.2,30.10,South,170,0.0,0.0,44,0.00,,,0.00,0,Wunderground v.1.15,2013-04-29 05:18:00,
2013-04-29 01:24:00,57.5,35.7,30.10,South,170,0.0,0.0,44,0.00,,,0.00,0,Wunderground v.1.15,2013-04-29 05:24:00,
2013-04-29 01:29:00,57.0,35.9,30.10,South,170,0.0,0.0,45,0.00,,,0.00,0,Wunderground v.1.15,2013-04-29 05:29:00,
2013-04-29 01:35:00,56.6,35.5,30.10,South,170,0.0,0.0,45,0.00,,,0.00,0,Wunderground v.1.15,2013-04-29 05:35:00,
2013-04-29 01:41:00,56.2,35.7,30.10,South,170,0.0,0.0,46,0.00,,,0.00,0,Wunderground v.1.15,2013-04-29 05:41:00,
2013-04-29 01:47:00,55.9,35.4,30.10,South,170,0.0,0.0,46,0.00,,,0.00,0,Wunderground v.1.15,2013-04-29 05:47:00,
2013-04-29 01:52:00,55.6,36.7,30.10,South,170,0.0,2.0,49,0.00,,,0.00,0,Wunderground v.1.15,2013-04-29 05:52:00,
2013-04-29 01:58:00,55.3,36.5,30.10,South,170,0.0,2.0,49,0.00,,,0.00,0,Wunderground v.1.15,2013-04-29 05:58:00,
2013-04-29 02:03:00,55.0,36.2,30.10,South,170,0.0,0.0,49,0.00,,,0.00,0,Wunderground v.1.15,2013-04-29 06:03:00,
2013-04-29 02:09:00,54.5,37.2,30.10,South,170,0.0,0.0,52,0.00,,,0.00,0,Wunderground v.1.15,2013-04-29 06:09:00,
2013-04-29 02:15:00,54.1,37.8,30.10,South,170,0.0,0.0,54,0.00,,,0.00,0,Wunderground v.1.15,2013-04-29 06:15:00,
2013-04-29 02:21:00,53.6,37.3,30.10,South,170,0.0,2.0,54,0.00,,,0.00,0,Wunderground v.1.15,2013-04-29 06:21:00,
2013-04-29 02:26:00,53.3,38.0,30.10,South,170,1.0,2.0,56,0.00,,,0.00,0,Wunderground v.1.15,2013-04-29 06:26:00,
2013-04-29 02:32:00,52.9,37.2,30.10,South,170,0.0,1.0,55,0.00,,,0.00,0,Wunderground v.1.15,2013-04-29 06:32:00,
2013-04-29 02:38:00,52.8,37.1,30.10,South,170,0.0,1.0,55,0.00,,,0.00,0,Wunderground v.1.15,2013-04-29 06:38:00,
2013-04-29 02:43:00,52.6,37.3,30.10,South,170,0.0,0.0,56,0.00,,,0.00,0,Wunderground v.1.15,2013-04-29 06:43:00,
2013-04-29 02:49:00,52.5,37.7,30.10,South,170,0.0,0.0,57,0.00,,,0.00,0,Wunderground v.1.15,2013-04-29 06:49:00,
2013-04-29 02:55:00,52.3,37.5,30.10,South,170,0.0,1.0,57,0.00,,,0.00,0,Wunderground v.1.15,2013-04-29 06:55:00,
2013-04-29 03:00:00,52.2,37.9,30.10,South,170,0.0,0.0,58,0.00,,,0.00,0,Wunderground v.1.15,2013-04-29 07:00:00,
2013-04-29 03:06:00,51.9,37.6,30.10,South,170,1.0,3.0,58,0.00,,,0.00,0,Wunderground v.1.15,2013-04-29 07:06:00,
2013-04-29 03:11:00,51.7,37.8,30.10,South,170,1.0,2.0,59,0.00,,,0.00,0,Wunderground v.1.15,2013-04-29 07:11:00,
2013-04-29 03:31:00,51.1,37.7,30.10,South,170,0.0,0.0,60,0.00,,,0.00,0,Wunderground v.1.15,2013-04-29 07:31:00,
2013-04-29 03:36:00,51.1,37.7,30.10,South,170,0.0,1.0,60,0.00,,,0.00,0,Wunderground v.1.15,2013-04-29 07:36:00,
2013-04-29 03:42:00,51.1,37.7,30.10,South,170,1.0,2.0,60,0.00,,,0.00,0,Wunderground v.1.15,2013-04-29 07:42:00,
2013-04-29 03:48:00,51.1,37.7,30.10,South,170,1.0,2.0,60,0.00,,,0.00,0,Wunderground v.1.15,2013-04-29 07:48:00,
2013-04-29 03:54:00,51.0,37.6,30.10,South,170,0.0,1.0,60,0.00,,,0.00,0,Wunderground v.1.15,2013-04-29 07:54:00,
2013-04-29 03:59:00,50.8,37.8,30.10,South,170,0.0,2.0,61,0.00,,,0.00,0,Wunderground v.1.15,2013-04-29 07:59:00,
2013-04-29 04:06:00,50.5,37.5,30.10,South,170,1.0,2.0,61,0.00,,,0.00,0,Wunderground v.1.15,2013-04-29 08:06:00,
2013-04-29 04:11:00,50.4,37.9,30.10,South,170,0.0,0.0,62,0.00,,,0.00,0,Wunderground v.1.15,2013-04-29 08:11:00,
2013-04-29 04:16:00,50.2,37.7,30.11,South,170,0.0,1.0,62,0.00,,,0.00,0,Wunderground v.1.15,2013-04-29 08:16:00,
2013-04-29 04:22:00,49.9,37.8,30.11,South,170,1.0,3.0,63,0.00,,,0.00,0,Wunderground v.1.15,2013-04-29 08:22:00,
2013-04-29 04:27:00,49.8,37.7,30.11,South,170,1.0,3.0,63,0.00,,,0.00,0,Wunderground v.1.15,2013-04-29 08:27:00,
2013-04-29 04:33:00,49.8,37.7,30.11,South,170,0.0,1.0,63,0.00,,,0.00,0,Wunderground v.1.15,2013-04-29 08:33:00,
2013-04-29 04:39:00,49.6,37.5,30.11,South,170,0.0,3.0,63,0.00,,,0.00,0,Wunderground v.1.15,2013-04-29 08:39:00,
2013-04-29 04:44:00,49.6,37.5,30.11,South,170,0.0,0.0,63,0.00,,,0.00,0,Wunderground v.1.15,2013-04-29 08:44:00,
2013-04-29 04:50:00,49.6,37.9,30.11,South,170,0.0,2.0,64,0.00,,,0.00,0,Wunderground v.1.15,2013-04-29 08:50:00,
2013-04-29 04:56:00,49.6,37.9,30.11,South,170,0.0,3.0,64,0.00,,,0.00,0,Wunderground v.1.15,2013-04-29 08:56:00,
2013-04-29 05:01:00,49.5,37.8,30.11,South,170,1.0,1.0,64,0.00,,,0.00,0,Wunderground v.1.15,2013-04-29 09:01:00,
2013-04-29 05:07:00,49.5,37.8,30.11,South,170,0.0,1.0,64,0.00,,,0.00,0,Wunderground v.1.15,2013-04-29 09:07:00,
2013-04-29 05:13:00,49.4,37.7,30.11,South,170,0.0,0.0,64,0.00,,,0.00,0,Wunderground v.1.15,2013-04-29 09:13:00,
2013-04-29 05:18:00,49.4,37.7,30.11,South,170,0.0,2.0,64,0.00,,,0.00,0,Wunderground v.1.15,2013-04-29 09:18:00,
2013-04-29 05:24:00,49.5,37.8,30.11,South,171,1.0,1.0,64,0.00,,,0.00,0,Wunderground v.1.15,2013-04-29 09:24:00,
2013-04-29 05:30:00,49.5,37.8,30.11,South,171,1.0,1.0,64,0.00,,,0.00,0,Wunderground v.1.15,2013-04-29 09:30:00,
2013-04-29 05:36:00,49.5,37.8,30.11,South,171,0.0,1.0,64,0.00,,,0.00,0,Wunderground v.1.15,2013-04-29 09:36:00,
2013-04-29 05:41:00,49.5,37.8,30.11,South,171,0.0,0.0,64,0.00,,,0.00,0,Wunderground v.1.15,2013-04-29 09:41:00,
2013-04-29 05:47:00,49.5,37.8,30.11,South,170,0.0,0.0,64,0.00,,,0.00,0,Wunderground v.1.15,2013-04-29 09:47:00,
2013-04-29 05:53:00,49.5,37.8,30.11,South,171,0.0,0.0,64,0.00,,,0.00,0,Wunderground v.1.15,2013-04-29 09:53:00,
2013-04-29 05:58:00,49.5,37.8,30.11,South,170,0.0,0.0,64,0.00,,,0.00,0,Wunderground v.1.15,2013-04-29 09:58:00,
2013-04-29 06:04:00,49.5,37.0,30.12,South,170,0.0,0.0,62,0.00,,,0.00,7,Wunderground v.1.15,2013-04-29 10:04:00,
2013-04-29 06:10:00,49.8,36.9,30.12,South,170,0.0,0.0,61,0.00,,,0.00,12,Wunderground v.1.15,2013-04-29 10:10:00,
2013-04-29 06:15:00,50.1,36.7,30.12,South,172,0.0,0.0,60,0.00,,,0.00,14,Wunderground v.1.15,2013-04-29 10:15:00,
2013-04-29 06:20:00,50.4,36.6,30.12,South,172,0.0,0.0,59,0.00,,,0.00,19,Wunderground v.1.15,2013-04-29 10:20:00,
2013-04-29 06:26:00,50.7,36.5,30.12,South,172,0.0,0.0,58,0.00,,,0.00,23,Wunderground v.1.15,2013-04-29 10:26:00,
2013-04-29 06:31:00,50.8,36.1,30.13,South,172,0.0,0.0,57,0.00,,,0.00,30,Wunderground v.1.15,2013-04-29 10:31:00,
2013-04-29 06:37:00,51.1,35.9,30.13,South,172,0.0,0.0,56,0.00,,,0.00,37,Wunderground v.1.15,2013-04-29 10:37:00,
2013-04-29 06:43:00,51.4,36.2,30.13,South,172,0.0,0.0,56,0.00,,,0.00,40,Wunderground v.1.15,2013-04-29 10:43:00,
2013-04-29 06:48:00,51.7,36.0,30.13,South,172,0.0,0.0,55,0.00,,,0.00,46,Wunderground v.1.15,2013-04-29 10:48:00,
2013-04-29 06:54:00,51.9,35.8,30.13,South,172,0.0,0.0,54,0.00,,,0.00,56,Wunderground v.1.15,2013-04-29 10:54:00,
2013-04-29 06:59:00,52.2,37.4,30.13,South,172,0.0,0.0,57,0.00,,,0.00,74,Wunderground v.1.15,2013-04-29 10:59:00,
2013-04-29 07:06:00,52.3,38.4,30.13,South,172,0.0,0.0,59,0.00,,,0.00,93,Wunderground v.1.15,2013-04-29 11:06:00,
2013-04-29 07:11:00,52.5,37.7,30.13,South,172,0.0,0.0,57,0.00,,,0.00,98,Wunderground v.1.15,2013-04-29 11:11:00,
2013-04-29 07:17:00,52.8,38.4,30.14,South,172,0.0,0.0,58,0.00,,,0.00,102,Wunderground v.1.15,2013-04-29 11:17:00,
2013-04-29 07:22:00,53.1,36.4,30.14,South,172,0.0,0.0,53,0.00,,,0.00,109,Wunderground v.1.15,2013-04-29 11:22:00,
2013-04-29 07:28:00,53.6,36.9,30.14,South,172,0.0,0.0,53,0.00,,,0.00,118,Wunderground v.1.15,2013-04-29 11:28:00,
2013-04-29 07:34:00,54.4,35.1,30.15,South,172,0.0,2.0,48,0.00,,,0.00,113,Wunderground v.1.15,2013-04-29 11:34:00,
2013-04-29 07:39:00,55.1,35.7,30.15,South,172,0.0,2.0,48,0.00,,,0.00,102,Wunderground v.1.15,2013-04-29 11:39:00,
2013-04-29 07:45:00,55.7,35.2,30.15,South,172,0.0,1.0,46,0.00,,,0.00,95,Wunderground v.1.15,2013-04-29 11:45:00,
2013-04-29 07:51:00,56.0,34.9,30.15,ESE,119,0.0,1.0,45,0.00,,,0.00,100,Wunderground v.1.15,2013-04-29 11:51:00,
2013-04-29 07:56:00,56.2,35.1,30.15,ESE,118,0.0,1.0,45,0.00,,,0.00,111,Wunderground v.1.15,2013-04-29 11:56:00,
2013-04-29 08:02:00,56.3,35.2,30.15,ESE,103,0.0,1.0,45,0.00,,,0.00,121,Wunderground v.1.15,2013-04-29 12:02:00,
2013-04-29 08:08:00,56.3,35.2,30.15,ESE,103,0.0,1.0,45,0.00,,,0.00,118,Wunderground v.1.15,2013-04-29 12:08:00,
2013-04-29 08:13:00,56.5,34.8,30.15,ESE,103,1.0,2.0,44,0.00,,,0.00,121,Wunderground v.1.15,2013-04-29 12:13:00,
2013-04-29 08:18:00,56.5,35.4,30.15,East,101,1.0,3.0,45,0.00,,,0.00,132,Wunderground v.1.15,2013-04-29 12:18:00,
2013-04-29 08:24:00,56.5,34.8,30.15,ENE,77,1.0,2.0,44,0.00,,,0.00,160,Wunderground v.1.15,2013-04-29 12:24:00,
2013-04-29 08:29:00,56.6,34.9,30.15,ENE,77,1.0,2.0,44,0.00,,,0.00,163,Wunderground v.1.15,2013-04-29 12:29:00,
2013-04-29 08:36:00,56.7,35.0,30.15,East,80,1.0,4.0,44,0.00,,,0.00,214,Wunderground v.1.15,2013-04-29 12:36:00,
2013-04-29 08:41:00,57.2,34.9,30.15,East,80,1.0,1.0,43,0.00,,,0.00,237,Wunderground v.1.15,2013-04-29 12:41:00,
2013-04-29 08:46:00,57.6,35.2,30.15,East,92,0.0,1.0,43,0.00,,,0.00,306,Wunderground v.1.15,2013-04-29 12:46:00,
2013-04-29 08:52:00,58.3,35.3,30.15,East,92,0.0,0.0,42,0.00,,,0.00,366,Wunderground v.1.15,2013-04-29 12:52:00,
2013-04-29 08:58:00,59.0,35.9,30.15,East,92,0.0,0.0,42,0.00,,,0.00,360,Wunderground v.1.15,2013-04-29 12:58:00,
2013-04-29 09:03:00,59.6,34.6,30.15,ESE,108,0.0,3.0,39,0.00,,,0.00,429,Wunderground v.1.15,2013-04-29 13:03:00,
2013-04-29 09:09:00,60.2,35.1,30.15,ESE,114,1.0,3.0,39,0.00,,,0.00,338,Wunderground v.1.15,2013-04-29 13:09:00,
2013-04-29 09:15:00,60.5,35.4,30.15,ESE,107,0.0,1.0,39,0.00,,,0.00,309,Wunderground v.1.15,2013-04-29 13:15:00,
2013-04-29 09:21:00,60.7,36.2,30.15,SE,126,1.0,2.0,40,0.00,,,0.00,295,Wunderground v.1.15,2013-04-29 13:21:00,
2013-04-29 09:26:00,60.9,35.1,30.15,East,93,1.0,3.0,38,0.00,,,0.00,279,Wunderground v.1.15,2013-04-29 13:26:00,
2013-04-29 09:32:00,60.7,34.9,30.14,SE,131,1.0,1.0,38,0.00,,,0.00,274,Wunderground v.1.15,2013-04-29 13:32:00,
2013-04-29 09:38:00,60.5,34.1,30.14,NNE,21,1.0,2.0,37,0.00,,,0.00,283,Wunderground v.1.15,2013-04-29 13:38:00,
2013-04-29 09:43:00,60.5,34.7,30.14,ESE,105,1.0,2.0,38,0.00,,,0.00,294,Wunderground v.1.15,2013-04-29 13:43:00,
2013-04-29 09:49:00,60.4,34.0,30.14,NE,55,1.0,3.0,37,0.00,,,0.00,283,Wunderground v.1.15,2013-04-29 13:49:00,
2013-04-29 09:55:00,60.4,34.7,30.14,ENE,69,1.0,1.0,38,0.00,,,0.00,257,Wunderground v.1.15,2013-04-29 13:55:00,
2013-04-29 10:00:00,60.4,34.7,30.13,ESE,119,0.0,0.0,38,0.00,,,0.00,258,Wunderground v.1.15,2013-04-29 14:00:00,
2013-04-29 10:06:00,60.5,35.4,30.13,ESE,103,1.0,1.0,39,0.00,,,0.00,287,Wunderground v.1.15,2013-04-29 14:06:00,
2013-04-29 10:11:00,60.7,35.6,30.13,East,99,0.0,1.0,39,0.00,,,0.00,322,Wunderground v.1.15,2013-04-29 14:11:00,
2013-04-29 10:17:00,60.9,34.4,30.13,East,86,0.0,3.0,37,0.00,,,0.00,302,Wunderground v.1.15,2013-04-29 14:17:00,
2013-04-29 10:22:00,61.0,35.2,30.13,ENE,74,1.0,2.0,38,0.00,,,0.00,294,Wunderground v.1.15,2013-04-29 14:22:00,
2013-04-29 10:28:00,61.2,35.4,30.13,East,98,1.0,2.0,38,0.00,,,0.00,287,Wunderground v.1.15,2013-04-29 14:28:00,
2013-04-29 10:34:00,61.2,34.7,30.13,ENE,61,1.0,2.0,37,0.00,,,0.00,301,Wunderground v.1.15,2013-04-29 14:34:00,
2013-04-29 10:39:00,61.3,35.5,30.13,ESE,111,1.0,2.0,38,0.00,,,0.00,322,Wunderground v.1.15,2013-04-29 14:39:00,
2013-04-29 10:45:00,61.5,36.3,30.13,NE,48,1.0,4.0,39,0.00,,,0.00,341,Wunderground v.1.15,2013-04-29 14:45:00,
2013-04-29 10:51:00,61.5,35.0,30.13,East,95,1.0,3.0,37,0.00,,,0.00,323,Wunderground v.1.15,2013-04-29 14:51:00,
2013-04-29 10:56:00,61.6,35.7,30.13,East,94,0.0,3.0,38,0.00,,,0.00,323,Wunderground v.1.15,2013-04-29 14:56:00,
2013-04-29 11:02:00,62.0,36.1,30.13,East,94,0.0,1.0,38,0.00,,,0.00,320,Wunderground v.1.15,2013-04-29 15:02:00,
2013-04-29 11:08:00,62.0,35.4,30.13,East,97,1.0,3.0,37,0.00,,,0.00,381,Wunderground v.1.15,2013-04-29 15:08:00,
2013-04-29 11:14:00,62.1,34.8,30.13,ENE,78,1.0,3.0,36,0.00,,,0.00,599,Wunderground v.1.15,2013-04-29 15:14:00,
2013-04-29 11:19:00,62.7,35.3,30.13,East,87,1.0,3.0,36,0.00,,,0.00,642,Wunderground v.1.15,2013-04-29 15:19:00,
2013-04-29 11:25:00,63.7,34.8,30.13,East,94,1.0,3.0,34,0.00,,,0.00,489,Wunderground v.1.15,2013-04-29 15:25:00,
2013-04-29 11:31:00,64.0,37.2,30.12,SE,134,1.0,1.0,37,0.00,,,0.00,450,Wunderground v.1.15,2013-04-29 15:31:00,
2013-04-29 11:37:00,64.2,37.4,30.12,North,11,1.0,4.0,37,0.00,,,0.00,366,Wunderground v.1.15,2013-04-29 15:37:00,
2013-04-29 11:42:00,63.9,35.7,30.12,North,0,0.0,1.0,35,0.00,,,0.00,362,Wunderground v.1.15,2013-04-29 15:42:00,
2013-04-29 11:48:00,63.9,36.4,30.12,ENE,73,1.0,2.0,36,0.00,,,0.00,369,Wunderground v.1.15,2013-04-29 15:48:00,
2013-04-29 11:54:00,64.0,36.5,30.12,NNE,29,0.0,1.0,36,0.00,,,0.00,473,Wunderground v.1.15,2013-04-29 15:54:00,
2013-04-29 11:59:00,64.2,38.0,30.12,NE,44,0.0,2.0,38,0.00,,,0.00,628,Wunderground v.1.15,2013-04-29 15:59:00,
2013-04-29 12:06:00,65.3,37.6,30.12,NE,44,0.0,2.0,36,0.00,,,0.00,1120,Wunderground v.1.15,2013-04-29 16:06:00,
2013-04-29 12:11:00,66.8,36.0,30.12,East,85,0.0,0.0,32,0.00,,,0.00,629,Wunderground v.1.15,2013-04-29 16:11:00,
2013-04-29 12:16:00,67.6,38.2,30.11,NE,54,1.0,4.0,34,0.00,,,0.00,888,Wunderground v.1.15,2013-04-29 16:16:00,
2013-04-29 12:22:00,68.4,38.2,30.11,ENE,72,1.0,1.0,33,0.00,,,0.00,877,Wunderground v.1.15,2013-04-29 16:22:00,
2013-04-29 12:28:00,68.6,36.7,30.11,ENE,75,1.0,5.0,31,0.00,,,0.00,468,Wunderground v.1.15,2013-04-29 16:28:00,
2013-04-29 12:33:00,68.3,36.5,30.10,East,96,2.0,2.0,31,0.00,,,0.00,612,Wunderground v.1.15,2013-04-29 16:33:00,
2013-04-29 12:39:00,68.1,37.1,30.10,NE,56,1.0,3.0,32,0.00,,,0.00,485,Wunderground v.1.15,2013-04-29 16:39:00,
2013-04-29 12:45:00,67.8,36.0,30.10,ESE,103,1.0,6.0,31,0.00,,,0.00,330,Wunderground v.1.15,2013-04-29 16:45:00,
2013-04-29 12:51:00,67.3,37.2,30.10,East,88,1.0,2.0,33,0.00,,,0.00,285,Wunderground v.1.15,2013-04-29 16:51:00,
2013-04-29 12:56:00,66.8,38.3,30.10,ENE,75,1.0,2.0,35,0.00,,,0.00,295,Wunderground v.1.15,2013-04-29 16:56:00,
2013-04-29 13:02:00,66.4,39.3,30.10,ENE,76,0.0,1.0,37,0.00,,,0.00,294,Wunderground v.1.15,2013-04-29 17:02:00,
2013-04-29 13:08:00,66.4,39.3,30.10,SE,134,0.0,1.0,37,0.00,,,0.00,285,Wunderground v.1.15,2013-04-29 17:08:00,
2013-04-29 13:13:00,66.1,38.4,30.10,East,79,1.0,4.0,36,0.00,,,0.00,292,Wunderground v.1.15,2013-04-29 17:13:00,
2013-04-29 13:18:00,65.6,37.9,30.10,ESE,121,1.0,4.0,36,0.00,,,0.00,304,Wunderground v.1.15,2013-04-29 17:18:00,
2013-04-29 13:24:00,65.5,38.5,30.10,East,93,2.0,3.0,37,0.00,,,0.00,313,Wunderground v.1.15,2013-04-29 17:24:00,
2013-04-29 13:29:00,65.6,40.6,30.10,NE,46,1.0,3.0,40,0.00,,,0.00,373,Wunderground v.1.15,2013-04-29 17:29:00,
2013-04-29 13:36:00,66.1,39.7,30.10,NE,48,0.0,1.0,38,0.00,,,0.00,392,Wunderground v.1.15,2013-04-29 17:36:00,
2013-04-29 13:41:00,66.3,40.6,30.10,NNE,24,1.0,1.0,39,0.00,,,0.00,524,Wunderground v.1.15,2013-04-29 17:41:00,
2013-04-29 13:46:00,66.6,38.1,30.10,ENE,72,1.0,2.0,35,0.00,,,0.00,577,Wunderground v.1.15,2013-04-29 17:46:00,
2013-04-29 13:52:00,66.9,39.1,30.10,East,86,1.0,1.0,36,0.00,,,0.00,545,Wunderground v.1.15,2013-04-29 17:52:00,
2013-04-29 13:58:00,67.4,40.2,30.10,East,79,1.0,1.0,37,0.00,,,0.00,473,Wunderground v.1.15,2013-04-29 17:58:00,
2013-04-29 14:04:00,67.8,41.3,30.10,East,85,0.0,1.0,38,0.00,,,0.00,362,Wunderground v.1.15,2013-04-29 18:04:00,
2013-04-29 14:11:00,67.3,40.8,30.10,East,85,0.0,0.0,38,0.00,,,0.00,350,Wunderground v.1.15,2013-04-29 18:11:00,
2013-04-29 14:16:00,67.1,39.9,30.10,ESE,106,1.0,3.0,37,0.00,,,0.00,353,Wunderground v.1.15,2013-04-29 18:16:00,
2013-04-29 14:22:00,66.8,41.0,30.10,NNE,30,1.0,1.0,39,0.00,,,0.00,338,Wunderground v.1.15,2013-04-29 18:22:00,
2013-04-29 14:27:00,66.8,41.0,30.10,East,82,0.0,1.0,39,0.00,,,0.00,278,Wunderground v.1.15,2013-04-29 18:27:00,
2013-04-29 14:33:00,66.6,40.2,30.10,NE,35,0.0,1.0,38,0.00,,,0.00,218,Wunderground v.1.15,2013-04-29 18:33:00,
2013-04-29 14:39:00,66.0,41.0,30.10,East,79,1.0,2.0,40,0.00,,,0.00,207,Wunderground v.1.15,2013-04-29 18:39:00,
2013-04-29 14:44:00,65.5,41.8,30.10,ESE,118,1.0,2.0,42,0.00,,,0.00,250,Wunderground v.1.15,2013-04-29 18:44:00,
2013-04-29 14:50:00,65.5,41.2,30.10,East,85,1.0,2.0,41,0.00,,,0.00,318,Wunderground v.1.15,2013-04-29 18:50:00,
2013-04-29 14:56:00,65.6,42.5,30.10,ESE,120,1.0,3.0,43,0.00,,,0.00,396,Wunderground v.1.15,2013-04-29 18:56:00,
2013-04-29 15:02:00,66.0,41.6,30.10,ESE,105,1.0,1.0,41,0.00,,,0.00,322,Wunderground v.1.15,2013-04-29 19:02:00,
2013-04-29 15:07:00,66.1,41.1,30.10,SSE,150,0.0,3.0,40,0.00,,,0.00,283,Wunderground v.1.15,2013-04-29 19:07:00,
2013-04-29 15:13:00,65.3,41.0,30.10,East,79,2.0,5.0,41,0.00,,,0.00,239,Wunderground v.1.15,2013-04-29 19:13:00,
2013-04-29 15:19:00,65.0,41.9,30.10,East,94,2.0,5.0,43,0.00,,,0.00,207,Wunderground v.1.15,2013-04-29 19:19:00,
2013-04-29 15:24:00,64.5,42.1,30.10,ENE,58,1.0,3.0,44,0.00,,,0.00,204,Wunderground v.1.15,2013-04-29 19:24:00,
2013-04-29 15:30:00,64.2,41.8,30.10,East,79,1.0,1.0,44,0.00,,,0.00,192,Wunderground v.1.15,2013-04-29 19:30:00,
2013-04-29 15:36:00,64.2,41.8,30.10,East,81,0.0,3.0,44,0.00,,,0.00,192,Wunderground v.1.15,2013-04-29 19:36:00,
2013-04-29 15:42:00,63.7,41.4,30.10,East,79,1.0,3.0,44,0.00,,,0.00,199,Wunderground v.1.15,2013-04-29 19:42:00,
2013-04-29 15:47:00,63.5,42.3,30.10,ENE,68,1.0,3.0,46,0.00,,,0.00,192,Wunderground v.1.15,2013-04-29 19:47:00,
2013-04-29 15:53:00,63.2,41.5,30.10,SE,124,1.0,3.0,45,0.00,,,0.00,178,Wunderground v.1.15,2013-04-29 19:53:00,
2013-04-29 15:58:00,62.9,42.4,30.10,ENE,58,2.0,5.0,47,0.00,,,0.00,162,Wunderground v.1.15,2013-04-29 19:58:00,
2013-04-29 16:04:00,62.9,42.4,30.10,ENE,59,1.0,2.0,47,0.00,,,0.00,176,Wunderground v.1.15,2013-04-29 20:04:00,
2013-04-29 16:09:00,62.9,42.9,30.10,ENE,68,1.0,3.0,48,0.00,,,0.00,183,Wunderground v.1.15,2013-04-29 20:09:00,
2013-04-29 16:14:00,62.7,42.7,30.10,East,96,1.0,2.0,48,0.00,,,0.00,176,Wunderground v.1.15,2013-04-29 20:14:00,
2013-04-29 16:21:00,62.6,42.6,30.10,East,82,1.0,1.0,48,0.00,,,0.00,183,Wunderground v.1.15,2013-04-29 20:21:00,
2013-04-29 16:26:00,62.4,42.4,30.10,East,84,1.0,2.0,48,0.00,,,0.00,204,Wunderground v.1.15,2013-04-29 20:26:00,
2013-04-29 16:32:00,62.4,42.4,30.10,East,83,1.0,3.0,48,0.00,,,0.00,206,Wunderground v.1.15,2013-04-29 20:32:00,
2013-04-29 16:37:00,62.6,42.6,30.10,East,93,0.0,3.0,48,0.00,,,0.00,214,Wunderground v.1.15,2013-04-29 20:37:00,
2013-04-29 16:43:00,62.9,43.4,30.10,SSE,167,0.0,1.0,49,0.00,,,0.00,192,Wunderground v.1.15,2013-04-29 20:43:00,
2013-04-29 16:49:00,63.1,43.6,30.11,SSE,167,0.0,1.0,49,0.00,,,0.00,162,Wunderground v.1.15,2013-04-29 20:49:00,
2013-04-29 16:55:00,63.1,43.1,30.11,SSE,167,0.0,0.0,48,0.00,,,0.00,153,Wunderground v.1.15,2013-04-29 20:55:00,
2013-04-29 17:00:00,62.9,43.4,30.12,SSE,165,0.0,0.0,49,0.00,,,0.00,127,Wunderground v.1.15,2013-04-29 21:00:00,
2013-04-29 17:06:00,62.4,43.5,30.12,ENE,65,1.0,4.0,50,0.00,,,0.00,109,Wunderground v.1.15,2013-04-29 21:06:00,
2013-04-29 17:11:00,61.8,43.0,30.12,ENE,65,1.0,1.0,50,0.00,,,0.00,97,Wunderground v.1.15,2013-04-29 21:11:00,
2013-04-29 17:16:00,61.5,43.2,30.12,ENE,65,0.0,1.0,51,0.00,,,0.00,98,Wunderground v.1.15,2013-04-29 21:16:00,
2013-04-29 17:22:00,61.2,42.4,30.12,ESE,122,1.0,5.0,50,0.00,,,0.00,90,Wunderground v.1.15,2013-04-29 21:22:00,
2013-04-29 17:28:00,60.9,42.6,30.12,ESE,110,1.0,5.0,51,0.00,,,0.00,83,Wunderground v.1.15,2013-04-29 21:28:00,
2013-04-29 17:33:00,60.5,42.8,30.12,ESE,110,0.0,1.0,52,0.00,,,0.00,67,Wunderground v.1.15,2013-04-29 21:33:00,
2013-04-29 17:39:00,60.4,43.2,30.12,ESE,111,0.0,1.0,53,0.00,,,0.00,65,Wunderground v.1.15,2013-04-29 21:39:00,
2013-04-29 17:45:00,60.1,42.9,30.12,ESE,118,0.0,2.0,53,0.00,,,0.00,69,Wunderground v.1.15,2013-04-29 21:45:00,
2013-04-29 17:51:00,59.9,42.7,30.12,ESE,118,0.0,0.0,53,0.00,,,0.00,56,Wunderground v.1.15,2013-04-29 21:51:00,
2013-04-29 17:56:00,59.9,43.2,30.12,ESE,118,0.0,0.0,54,0.00,,,0.00,46,Wunderground v.1.15,2013-04-29 21:56:00,
2013-04-29 18:02:00,59.6,42.9,30.12,ESE,118,0.0,0.0,54,0.00,,,0.00,40,Wunderground v.1.15,2013-04-29 22:02:00,
2013-04-29 18:08:00,59.5,42.8,30.12,ESE,118,0.0,0.0,54,0.00,,,0.00,35,Wunderground v.1.15,2013-04-29 22:08:00,
2013-04-29 18:13:00,59.5,42.8,30.12,ESE,118,0.0,0.0,54,0.00,,,0.00,35,Wunderground v.1.15,2013-04-29 22:13:00,
2013-04-29 18:19:00,59.3,42.6,30.12,ESE,118,0.0,0.0,54,0.00,,,0.00,33,Wunderground v.1.15,2013-04-29 22:19:00,
2013-04-29 18:25:00,59.2,42.6,30.12,ESE,118,0.0,0.0,54,0.00,,,0.00,30,Wunderground v.1.15,2013-04-29 22:25:00,
2013-04-29 18:30:00,59.2,42.6,30.12,ESE,118,0.0,0.0,54,0.00,,,0.00,28,Wunderground v.1.15,2013-04-29 22:30:00,
2013-04-29 18:36:00,59.2,42.6,30.12,ESE,118,0.0,0.0,54,0.00,,,0.00,30,Wunderground v.1.15,2013-04-29 22:36:00,
2013-04-29 18:42:00,59.2,43.0,30.12,ESE,118,0.0,0.0,55,0.00,,,0.00,30,Wunderground v.1.15,2013-04-29 22:42:00,
2013-04-29 18:47:00,59.2,43.0,30.12,ESE,118,0.0,0.0,55,0.00,,,0.00,26,Wunderground v.1.15,2013-04-29 22:47:00,
2013-04-29 18:53:00,59.2,43.0,30.12,ESE,118,0.0,0.0,55,0.00,,,0.00,21,Wunderground v.1.15,2013-04-29 22:53:00,
2013-04-29 18:58:00,59.0,42.8,30.12,ESE,118,0.0,0.0,55,0.00,,,0.00,19,Wunderground v.1.15,2013-04-29 22:58:00,
2013-04-29 19:04:00,59.0,43.3,30.12,ESE,118,0.0,0.0,56,0.00,,,0.00,16,Wunderground v.1.15,2013-04-29 23:04:00,
2013-04-29 19:11:00,58.9,42.8,30.12,ESE,118,0.0,0.0,55,0.00,,,0.00,14,Wunderground v.1.15,2013-04-29 23:11:00,
2013-04-29 19:16:00,58.9,43.2,30.12,ESE,118,0.0,0.0,56,0.00,,,0.00,12,Wunderground v.1.15,2013-04-29 23:16:00,
2013-04-29 19:22:00,58.9,43.7,30.12,ESE,118,0.0,0.0,57,0.00,,,0.00,12,Wunderground v.1.15,2013-04-29 23:22:00,
2013-04-29 19:28:00,58.7,43.5,30.12,ESE,118,0.0,0.0,57,0.00,,,0.00,12,Wunderground v.1.15,2013-04-29 23:28:00,
2013-04-29 19:33:00,58.6,43.9,30.12,ESE,118,0.0,0.0,58,0.00,,,0.00,11,Wunderground v.1.15,2013-04-29 23:33:00,
2013-04-29 19:39:00,58.4,43.2,30.12,ESE,118,0.0,0.0,57,0.00,,,0.00,7,Wunderground v.1.15,2013-04-29 23:39:00,
2013-04-29 19:45:00,58.3,43.1,30.12,ESE,118,0.0,0.0,57,0.00,,,0.00,5,Wunderground v.1.15,2013-04-29 23:45:00,
2013-04-29 19:51:00,58.3,43.1,30.12,ESE,118,0.0,0.0,57,0.00,,,0.00,0,Wunderground v.1.15,2013-04-29 23:51:00,
2013-04-29 19:56:00,58.1,43.4,30.12,ESE,118,0.0,0.0,58,0.00,,,0.00,0,Wunderground v.1.15,2013-04-29 23:56:00,
2013-04-29 20:02:00,58.1,43.4,30.12,ESE,118,0.0,0.0,58,0.00,,,0.00,0,Wunderground v.1.15,2013-04-30 00:02:00,
2013-04-29 20:08:00,58.0,43.3,30.12,ESE,118,0.0,0.0,58,0.00,,,0.00,0,Wunderground v.1.15,2013-04-30 00:08:00,
2013-04-29 20:13:00,57.8,43.1,30.12,ESE,118,0.0,0.0,58,0.00,,,0.00,0,Wunderground v.1.15,2013-04-30 00:13:00,
2013-04-29 20:19:00,57.6,43.4,30.12,ESE,118,0.0,0.0,59,0.00,,,0.00,0,Wunderground v.1.15,2013-04-30 00:19:00,
2013-04-29 20:24:00,57.5,43.3,30.12,ESE,118,0.0,0.0,59,0.00,,,0.00,0,Wunderground v.1.15,2013-04-30 00:24:00,
2013-04-29 20:30:00,57.3,43.1,30.13,ESE,118,0.0,0.0,59,0.00,,,0.00,0,Wunderground v.1.15,2013-04-30 00:30:00,
2013-04-29 20:36:00,57.0,43.2,30.13,ESE,118,0.0,0.0,60,0.00,,,0.00,0,Wunderground v.1.15,2013-04-30 00:36:00,
2013-04-29 20:42:00,56.9,43.2,30.13,ESE,118,0.0,0.0,60,0.00,,,0.00,0,Wunderground v.1.15,2013-04-30 00:42:00,
2013-04-29 20:47:00,56.7,43.0,30.13,ESE,118,0.0,0.0,60,0.00,,,0.00,0,Wunderground v.1.15,2013-04-30 00:47:00,
2013-04-29 20:53:00,56.6,42.9,30.13,ESE,118,0.0,0.0,60,0.00,,,0.00,0,Wunderground v.1.15,2013-04-30 00:53:00,
2013-04-29 20:59:00,56.5,42.3,30.13,ESE,118,0.0,0.0,59,0.00,,,0.00,0,Wunderground v.1.15,2013-04-30 00:59:00,
2013-04-29 21:04:00,56.3,42.1,30.13,ESE,118,0.0,0.0,59,0.00,,,0.00,0,Wunderground v.1.15,2013-04-30 01:04:00,
2013-04-29 21:10:00,56.3,42.1,30.13,ESE,118,0.0,0.0,59,0.00,,,0.00,0,Wunderground v.1.15,2013-04-30 01:10:00,
2013-04-29 21:15:00,56.3,42.1,30.15,ESE,118,0.0,0.0,59,0.00,,,0.00,0,Wunderground v.1.15,2013-04-30 01:15:00,
2013-04-29 21:21:00,56.2,42.1,30.15,ESE,118,0.0,0.0,59,0.00,,,0.00,0,Wunderground v.1.15,2013-04-30 01:21:00,
2013-04-29 21:26:00,56.2,42.1,30.15,ESE,118,0.0,0.0,59,0.00,,,0.00,0,Wunderground v.1.15,2013-04-30 01:26:00,
2013-04-29 21:32:00,56.0,41.9,30.15,ESE,118,0.0,0.0,59,0.00,,,0.00,0,Wunderground v.1.15,2013-04-30 01:32:00,
2013-04-29 21:37:00,56.0,41.9,30.15,ESE,118,0.0,0.0,59,0.00,,,0.00,0,Wunderground v.1.15,2013-04-30 01:37:00,
2013-04-29 21:43:00,56.2,42.1,30.15,ESE,118,0.0,0.0,59,0.00,,,0.00,0,Wunderground v.1.15,2013-04-30 01:43:00,
2013-04-29 21:48:00,56.2,42.1,30.15,ESE,118,0.0,0.0,59,0.00,,,0.00,0,Wunderground v.1.15,2013-04-30 01:48:00,
2013-04-29 21:54:00,56.3,42.1,30.15,ESE,118,0.0,1.0,59,0.00,,,0.00,0,Wunderground v.1.15,2013-04-30 01:54:00,
2013-04-29 22:00:00,56.3,41.7,30.15,ESE,118,0.0,0.0,58,0.00,,,0.00,0,Wunderground v.1.15,2013-04-30 02:00:00,
2013-04-29 22:06:00,56.5,41.9,30.15,ESE,118,0.0,0.0,58,0.00,,,0.00,0,Wunderground v.1.15,2013-04-30 02:06:00,
2013-04-29 22:11:00,56.5,41.9,30.15,NE,47,0.0,0.0,58,0.00,,,0.00,0,Wunderground v.1.15,2013-04-30 02:11:00,
2013-04-29 22:17:00,56.6,42.0,30.15,NE,47,0.0,0.0,58,0.00,,,0.00,0,Wunderground v.1.15,2013-04-30 02:17:00,
2013-04-29 22:22:00,56.6,42.0,30.15,NE,47,0.0,0.0,58,0.00,,,0.00,0,Wunderground v.1.15,2013-04-30 02:22:00,
2013-04-29 22:28:00,56.5,41.9,30.15,North,0,0.0,2.0,58,0.00,,,0.00,0,Wunderground v.1.15,2013-04-30 02:28:00,
2013-04-29 22:34:00,56.5,41.4,30.15,North,358,0.0,0.0,57,0.00,,,0.00,0,Wunderground v.1.15,2013-04-30 02:34:00,
2013-04-29 22:39:00,56.3,41.3,30.15,North,358,0.0,0.0,57,0.00,,,0.00,0,Wunderground v.1.15,2013-04-30 02:39:00,
2013-04-29 22:45:00,56.2,41.2,30.16,East,85,0.0,0.0,57,0.00,,,0.00,0,Wunderground v.1.15,2013-04-30 02:45:00,
2013-04-29 22:51:00,56.0,41.0,30.16,East,85,0.0,0.0,57,0.00,,,0.00,0,Wunderground v.1.15,2013-04-30 02:51:00,
2013-04-29 22:56:00,56.0,41.0,30.16,East,85,0.0,0.0,57,0.00,,,0.00,0,Wunderground v.1.15,2013-04-30 02:56:00,
2013-04-29 23:02:00,55.9,41.3,30.16,East,91,0.0,0.0,58,0.00,,,0.00,0,Wunderground v.1.15,2013-04-30 03:02:00,
2013-04-29 23:08:00,55.9,40.9,30.16,East,91,0.0,1.0,57,0.00,,,0.00,0,Wunderground v.1.15,2013-04-30 03:08:00,
2013-04-29 23:13:00,55.9,40.9,30.16,East,91,0.0,1.0,57,0.00,,,0.00,0,Wunderground v.1.15,2013-04-30 03:13:00,
2013-04-29 23:18:00,55.9,41.3,30.16,East,91,0.0,1.0,58,0.00,,,0.00,0,Wunderground v.1.15,2013-04-30 03:18:00,
2013-04-29 23:24:00,55.9,41.3,30.16,East,91,0.0,1.0,58,0.00,,,0.00,0,Wunderground v.1.15,2013-04-30 03:24:00,
2013-04-29 23:29:00,55.9,40.9,30.16,East,91,0.0,1.0,57,0.00,,,0.00,0,Wunderground v.1.15,2013-04-30 03:29:00,
2013-04-29 23:36:00,55.9,41.3,30.16,ENE,77,0.0,3.0,58,0.00,,,0.00,0,Wunderground v.1.15,2013-04-30 03:36:00,
2013-04-29 23:41:00,55.7,41.1,30.16,ENE,77,0.0,0.0,58,0.00,,,0.00,0,Wunderground v.1.15,2013-04-30 03:41:00,
2013-04-29 23:47:00,55.7,41.1,30.16,ENE,77,0.0,0.0,58,0.00,,,0.00,0,Wunderground v.1.15,2013-04-30 03:47:00,
2013-04-29 23:52:00,55.6,41.5,30.16,SE,141,0.0,0.0,59,0.00,,,0.00,0,Wunderground v.1.15,2013-04-30 03:52:00,
2013-04-29 23:58:00,55.6,41.9,30.16,SE,141,0.0,0.0,60,0.00,,,0.00,0,Wunderground v.1.15,2013-04-30 03:58:00,